Terminal Aerodrome Forecast
Issued by NWS Wichita, KS

Home | Current Version | Previous Version | Text Only | Print | Product List | Glossary Off
Versions: 1 2 3 4 5 6 7 8 9 10 11 12 13 14 15 16 17 18 19 20 21 22 23 24

000
FTUS43 KICT 192223 AAD
TAFICT
TAF AMD
KICT 192223Z 1922/2018 08014KT P6SM VCSH SCT015 OVC025
      TEMPO 1923/2001 -RA SCT009 OVC015
     FM200100 08013KT P6SM VCSH SCT009 OVC015
     FM200400 01013KT P6SM VCSH SCT009 OVC015
     FM200700 01014KT P6SM OVC008=

USA.gov is the U.S. government's official web portal to all federal, state and local government web resources and services.